»·PEaware :: N1JG KCOS-KASE

N1JG :: KCOS-KASE

FLIGHT INFORMATION

Flight Status: Arrived
Operator: Privately registered:
United States
More flights under this callsign
Pilot: Josh G. (4619)
Aircraft: Unknown
(SF50)
More flights by this aircraft type
Origin: KCOS City Of Colorado Springs Mun
United States
Destination: KASE Aspen-Pitkin Co/Sardy
United States
More flights between these airports :: More routes between these airports
Route: BRK FQF DBL
File this flight plan on PilotEdge
Remarks:
Altitude:
(Current/Filed)
22,000ft
Speed:
(Current/Filed)
290kts
Departed: 12-Oct-17 07:46 PM
Arrived: 12-Oct-17 08:28 PM
Distance/Time
Traveled:
104nm/0:42
Distance/Time
To Go:
Arrived

Flight Plot

Page will automatically refresh every two minutes.

Flight plan parsing failed; only flown route is shown


Map Options




Map Legend


Flown Route
Filed Route
Departure Airport
Arrival Airport
Navaid (VOR, NDB)
Fix

Horizontal Profiles

Position Reports

Time Latitude Longitude Heading Altitude Ground
Speed
12-Oct-17 19:28 38.811281 -104.720525 89 6096ft 0kts
12-Oct-17 19:29 38.811281 -104.720525 89 6096ft 0kts
12-Oct-17 19:30 38.811281 -104.720525 89 6096ft 0kts
12-Oct-17 19:31 38.811281 -104.720525 89 6096ft 0kts
12-Oct-17 19:32 38.811281 -104.720525 89 6096ft 0kts
12-Oct-17 19:33 38.811281 -104.720525 89 6096ft 0kts
12-Oct-17 19:34 38.811281 -104.720525 89 6096ft 0kts
12-Oct-17 19:35 38.811281 -104.720525 89 6096ft 0kts
12-Oct-17 19:36 38.811281 -104.720525 89 6096ft 0kts
12-Oct-17 19:37 38.811281 -104.720525 89 6096ft 0kts
12-Oct-17 19:38 38.811281 -104.720525 89 6096ft 0kts
12-Oct-17 19:39 38.811281 -104.720525 89 6096ft 0kts
12-Oct-17 19:40 38.811281 -104.720525 89 6096ft 0kts
12-Oct-17 19:41 38.811281 -104.720525 89 6096ft 0kts
12-Oct-17 19:42 38.811281 -104.720525 89 6096ft 0kts
12-Oct-17 19:43 38.811281 -104.720525 89 6096ft 0kts
12-Oct-17 19:44 38.811281 -104.720525 89 6096ft 0kts
12-Oct-17 19:45 38.810446 -104.719633 172 6096ft 9kts
12-Oct-17 19:46 38.806277 -104.719200 105 6096ft 14kts
12-Oct-17 19:47 38.803307 -104.717335 180 6096ft 16kts
12-Oct-17 19:48 38.798040 -104.717335 179 6096ft 19kts
12-Oct-17 19:49 38.794006 -104.717116 125 6096ft 0kts
12-Oct-17 19:50 38.793967 -104.717032 115 6096ft 3kts
12-Oct-17 19:51 38.803141 -104.715946 359 6103ft 117kts
12-Oct-17 19:52 38.844536 -104.713698 358 7536ft 188kts
12-Oct-17 19:53 38.898772 -104.710495 358 9925ft 207kts
12-Oct-17 19:54 38.955637 -104.705866 1 12442ft 207kts
12-Oct-17 19:55 39.011244 -104.699563 3 14819ft 202kts
12-Oct-17 19:56 39.065646 -104.693289 4 17102ft 194kts
12-Oct-17 19:57 39.111907 -104.687302 350 18698ft 200kts
12-Oct-17 19:58 39.169760 -104.681378 352 19464ft 254kts
12-Oct-17 19:59 39.242407 -104.672982 354 20093ft 293kts
12-Oct-17 20:00 39.323959 -104.663509 354 20837ft 310kts
12-Oct-17 20:01 39.408981 -104.653631 354 21755ft 313kts
12-Oct-17 20:02 39.467966 -104.693018 259 21998ft 245kts
12-Oct-17 20:03 39.445915 -104.770668 257 21991ft 226kts
12-Oct-17 20:04 39.443085 -104.846562 262 22015ft 205kts
12-Oct-17 20:05 39.443166 -104.917106 263 22018ft 195kts
12-Oct-17 20:06 39.443536 -104.992108 264 22023ft 220kts
12-Oct-17 20:07 39.444003 -105.073026 264 22020ft 232kts
12-Oct-17 20:08 39.444419 -105.156940 264 22018ft 237kts
12-Oct-17 20:09 39.444776 -105.238092 264 22014ft 228kts
12-Oct-17 20:10 39.445049 -105.319117 264 22016ft 226kts
12-Oct-17 20:11 39.445271 -105.399459 264 22015ft 225kts
12-Oct-17 20:12 39.445220 -105.479435 267 22133ft 231kts
12-Oct-17 20:13 39.445537 -105.566502 269 22298ft 261kts
12-Oct-17 20:14 39.445580 -105.660990 268 22345ft 280kts
12-Oct-17 20:15 39.445593 -105.756646 268 22428ft 284kts
12-Oct-17 20:16 39.445509 -105.856211 267 22427ft 283kts
12-Oct-17 20:17 39.445295 -105.956835 268 22424ft 282kts
12-Oct-17 20:18 39.445037 -106.058251 268 22402ft 285kts
12-Oct-17 20:19 39.444648 -106.161443 268 21700ft 286kts
12-Oct-17 20:20 39.444209 -106.259360 268 20683ft 264kts
12-Oct-17 20:21 39.443704 -106.352949 268 19295ft 261kts
12-Oct-17 20:22 39.443135 -106.445944 268 17798ft 258kts
12-Oct-17 20:23 39.442500 -106.537872 268 16304ft 256kts
12-Oct-17 20:24 39.441851 -106.625877 267 14861ft 254kts
12-Oct-17 20:25 39.441096 -106.707899 268 14038ft 244kts
12-Oct-17 20:26 39.440332 -106.795385 269 13962ft 254kts
12-Oct-17 20:27 39.425558 -106.881207 213 12745ft 239kts
12-Oct-17 20:28 39.367718 -106.910672 184 11389ft 219kts
12-Oct-17 20:29 39.311361 -106.906696 170 10022ft 181kts
12-Oct-17 20:30 39.280687 -106.895910 162 9144ft 90kts
12-Oct-17 20:31 39.258119 -106.885141 161 8382ft 87kts
12-Oct-17 20:31 39.239237 -106.876333 160 7943ft 87kts
12-Oct-17 20:33 39.225781 -106.868654 147 7777ft 6kts
12-Oct-17 20:34 39.225002 -106.867990 246 7778ft 0kts
12-Oct-17 20:39 39.225002 -106.867990 246 7777ft 0kts
12-Oct-17 20:40 39.225002 -106.867990 246 7777ft 0kts
12-Oct-17 20:41 39.225002 -106.867990 246 7777ft 0kts
12-Oct-17 20:42 39.225002 -106.867990 246 7777ft 0kts
12-Oct-17 20:43 39.225002 -106.867990 246 7777ft 0kts
12-Oct-17 20:44 39.225002 -106.867990 246 7777ft 0kts
12-Oct-17 20:45 39.225002 -106.867990 246 7777ft 0kts
12-Oct-17 20:46 39.225002 -106.867990 246 7777ft 0kts

Navigation Log

Ident Type
Flight plan parsing failed, navigation log unavailable